Time;durP1;ratioP1;P1;durP2;ratioP2;P2;SDS_P1;SDS_P2;PMS_P1;PMS_P2;Temp;Humidity;BMP_temperature;BMP_pressure;BME280_temperature;BME280_humidity;BME280_pressure;Samples;Min_cycle;Max_cycle;Signal;HPM_P1;HPM_P2
2022/11/29 00:00:32;;;;;;;5.72;3.58;;;17.90;54.00;;;;;;5108639;27;45318;-69
2022/11/29 00:02:59;;;;;;;3.95;3.63;;;18.00;54.00;;;;;;5108702;27;45457;-70
2022/11/29 00:05:26;;;;;;;5.85;3.67;;;18.00;54.00;;;;;;5108106;27;46974;-69
2022/11/29 00:07:54;;;;;;;4.25;3.72;;;18.00;53.90;;;;;;5095857;27;45189;-69
2022/11/29 00:10:20;;;;;;;3.75;3.40;;;18.00;53.90;;;;;;5087917;28;45295;-69
2022/11/29 00:12:47;;;;;;;5.10;3.67;;;18.00;53.90;;;;;;5087921;28;45303;-69
2022/11/29 00:15:14;;;;;;;3.63;3.28;;;18.00;54.40;;;;;;5087508;28;46412;-69
2022/11/29 00:17:41;;;;;;;4.97;3.70;;;18.00;53.80;;;;;;5087562;28;45187;-69
2022/11/29 00:20:09;;;;;;;3.40;3.10;;;18.10;53.80;;;;;;5087779;28;45229;-69
2022/11/29 00:22:36;;;;;;;4.32;3.70;;;18.00;53.80;;;;;;5087793;28;45400;-69
2022/11/29 00:25:05;;;;;;;4.18;3.75;;;18.00;53.80;;;;;;5087192;28;46731;-69
2022/11/29 00:27:32;;;;;;;3.40;3.10;;;18.00;53.90;;;;;;5087570;28;45296;-70
2022/11/29 00:29:59;;;;;;;3.60;3.30;;;18.00;53.90;;;;;;5086472;27;45205;-69
2022/11/29 00:32:26;;;;;;;3.65;3.33;;;18.00;53.90;;;;;;5087681;28;45259;-69
2022/11/29 00:34:52;;;;;;;3.60;2.75;;;18.00;53.90;;;;;;5087060;28;46713;-69
2022/11/29 00:37:19;;;;;;;4.15;3.35;;;17.90;53.90;;;;;;5087337;28;45225;-69
2022/11/29 00:39:46;;;;;;;3.47;3.13;;;17.90;53.90;;;;;;5087454;28;45167;-69
2022/11/29 00:42:15;;;;;;;3.67;3.08;;;17.90;54.00;;;;;;5087649;28;45239;-69
2022/11/29 00:44:42;;;;;;;3.58;3.28;;;17.90;54.00;;;;;;5086946;28;45352;-69
2022/11/29 00:47:09;;;;;;;3.47;3.17;;;17.90;54.10;;;;;;5099717;27;45307;-69
2022/11/29 00:49:35;;;;;;;3.90;2.97;;;17.90;54.10;;;;;;5107755;27;45176;-69
2022/11/29 00:52:02;;;;;;;3.47;2.90;;;17.80;54.10;;;;;;5107623;27;45148;-69
2022/11/29 00:54:29;;;;;;;3.63;2.97;;;17.80;54.10;;;;;;5107491;27;46624;-69
2022/11/29 00:56:56;;;;;;;3.95;3.10;;;17.80;54.20;;;;;;5107634;27;45302;-69
2022/11/29 00:59:25;;;;;;;3.50;3.10;;;17.80;54.20;;;;;;5107667;27;45311;-69
2022/11/29 01:01:52;;;;;;;3.13;2.75;;;17.80;54.20;;;;;;5107871;27;45457;-69
2022/11/29 01:04:19;;;;;;;4.75;3.10;;;17.70;54.30;;;;;;5107215;27;47850;-69
2022/11/29 01:06:45;;;;;;;4.82;2.90;;;17.70;54.30;;;;;;5104565;27;45769;-69
2022/11/29 01:09:12;;;;;;;4.03;2.80;;;17.70;54.30;;;;;;5086959;28;45389;-69
2022/11/29 01:11:39;;;;;;;4.07;2.83;;;17.70;54.30;;;;;;5086999;28;45411;-69
2022/11/29 01:14:06;;;;;;;2.60;2.40;;;17.80;54.30;;;;;;5086563;28;45221;-70
2022/11/29 01:16:35;;;;;;;3.67;2.78;;;17.80;54.20;;;;;;5086693;28;45229;-69
2022/11/29 01:19:02;;;;;;;3.40;2.60;;;17.80;54.20;;;;;;5087010;28;45311;-69
2022/11/29 01:21:29;;;;;;;3.83;2.88;;;17.80;54.20;;;;;;5086890;28;45376;-69
2022/11/29 01:23:56;;;;;;;3.80;2.53;;;17.80;54.10;;;;;;5086404;28;46888;-69
2022/11/29 01:26:24;;;;;;;2.67;2.47;;;17.80;54.10;;;;;;5086409;28;45170;-69
2022/11/29 01:28:52;;;;;;;3.25;2.92;;;17.90;54.10;;;;;;5086689;28;45345;-69
2022/11/29 01:31:20;;;;;;;3.28;2.50;;;17.90;54.00;;;;;;5086751;28;45361;-69
2022/11/29 01:33:48;;;;;;;3.33;2.53;;;17.90;53.90;;;;;;5086317;28;45227;-69
2022/11/29 01:36:15;;;;;;;2.80;2.55;;;17.90;53.90;;;;;;5086315;28;45353;-69
2022/11/29 01:38:42;;;;;;;4.38;2.70;;;17.90;53.80;;;;;;5086541;28;45434;-69
2022/11/29 01:41:11;;;;;;;3.08;2.40;;;17.90;53.80;;;;;;5086433;27;45323;-70
2022/11/29 01:43:55;;;;;;;4.03;2.58;;;17.90;53.80;;;;;;5086039;28;45266;-69
2022/11/29 01:46:22;;;;;;;2.90;2.60;;;17.90;53.80;;;;;;5091994;27;45253;-69
2022/11/29 01:48:51;;;;;;;3.47;2.20;;;17.90;53.80;;;;;;5106978;27;45194;-69
2022/11/29 01:51:18;;;;;;;3.20;2.58;;;17.90;53.90;;;;;;5106695;27;45422;-69
2022/11/29 01:53:45;;;;;;;2.45;2.25;;;17.90;53.90;;;;;;5106520;27;45555;-69
2022/11/29 01:56:12;;;;;;;3.08;2.20;;;17.90;53.90;;;;;;5106423;27;45316;-70
2022/11/29 01:58:39;;;;;;;2.47;2.08;;;17.90;54.00;;;;;;5106720;27;45220;-69
2022/11/29 02:01:05;;;;;;;2.30;2.10;;;17.90;53.90;;;;;;5106729;27;45411;-70
2022/11/29 02:03:32;;;;;;;2.35;2.15;;;17.90;54.00;;;;;;5106361;27;45327;-69
2022/11/29 02:06:01;;;;;;;2.60;2.10;;;17.80;54.00;;;;;;5106186;27;45318;-69
2022/11/29 02:08:30;;;;;;;2.58;2.25;;;17.80;54.00;;;;;;5089318;27;45343;-69
2022/11/29 02:11:13;;;;;;;3.33;2.30;;;17.80;54.10;;;;;;5086152;28;45453;-70
2022/11/29 02:13:42;;;;;;;2.53;2.33;;;17.80;54.10;;;;;;5085587;28;47953;-69
2022/11/29 02:16:12;;;;;;;2.78;2.10;;;17.80;54.10;;;;;;5085679;28;45326;-69
2022/11/29 02:18:45;;;;;;;2.60;2.10;;;17.70;54.10;;;;;;5085860;28;45194;-69
2022/11/29 02:21:21;;;;;;;3.97;2.00;;;17.70;54.10;;;;;;5086072;28;45205;-69
2022/11/29 02:24:06;;;;;;;3.20;2.20;;;17.70;54.30;;;;;;5085594;28;46512;-69
2022/11/29 02:27:07;;;;;;;3.00;2.10;;;17.70;54.30;;;;;;5085762;28;45380;-69
2022/11/29 02:30:06;;;;;;;2.65;1.77;;;17.70;54.30;;;;;;5074271;28;45303;-70
2022/11/29 02:32:53;;;;;;;3.28;2.08;;;17.70;54.40;;;;;;5081754;28;45602;-70
2022/11/29 02:35:24;;;;;;;1.80;1.70;;;17.70;54.40;;;;;;5085433;28;45442;-69
2022/11/29 02:38:13;;;;;;;1.95;1.70;;;17.70;54.30;;;;;;5085531;28;45209;-69
2022/11/29 02:41:00;;;;;;;2.53;1.98;;;17.70;54.30;;;;;;5085945;28;45316;-69
2022/11/29 02:43:47;;;;;;;2.03;1.83;;;17.70;54.20;;;;;;5085897;28;45309;-69
2022/11/29 02:46:22;;;;;;;2.35;1.73;;;17.70;54.20;;;;;;5089902;27;45703;-69
2022/11/29 02:48:58;;;;;;;2.45;1.70;;;17.70;54.10;;;;;;5105959;27;45325;-69
2022/11/29 02:51:27;;;;;;;2.33;1.85;;;17.80;54.10;;;;;;5106063;27;45337;-69
2022/11/29 02:53:58;;;;;;;3.42;1.75;;;17.80;54.00;;;;;;5108405;27;45379;-69
2022/11/29 02:56:27;;;;;;;3.53;1.80;;;17.80;54.00;;;;;;5109374;27;45339;-70
2022/11/29 02:59:01;;;;;;;2.03;1.85;;;17.90;54.00;;;;;;5109470;27;45283;-69
2022/11/29 03:01:31;;;;;;;1.90;1.80;;;17.90;53.90;;;;;;5109603;27;45280;-69
2022/11/29 03:04:04;;;;;;;2.05;1.95;;;17.90;53.90;;;;;;5109948;27;45335;-69
2022/11/29 03:06:36;;;;;;;3.20;1.98;;;17.90;53.90;;;;;;5108306;27;45498;-69
2022/11/29 03:09:07;;;;;;;2.10;1.90;;;17.90;53.90;;;;;;5088792;28;45268;-69
2022/11/29 03:11:39;;;;;;;2.75;1.80;;;17.90;53.90;;;;;;5088978;28;45297;-69
2022/11/29 03:14:22;;;;;;;2.75;1.60;;;17.90;53.90;;;;;;5089076;28;45262;-69
2022/11/29 03:16:55;;;;;;;2.00;1.80;;;17.90;53.90;;;;;;5088607;28;47627;-69
2022/11/29 03:19:48;;;;;;;2.13;1.83;;;17.90;53.90;;;;;;5088529;28;45197;-69
2022/11/29 03:22:18;;;;;;;2.70;1.77;;;17.80;53.90;;;;;;5088991;28;45447;-69
2022/11/29 03:24:49;;;;;;;2.05;1.80;;;17.80;53.90;;;;;;5088654;28;45383;-69
2022/11/29 03:27:17;;;;;;;3.13;1.77;;;17.80;53.90;;;;;;5088392;28;46418;-69
2022/11/29 03:29:47;;;;;;;1.80;1.70;;;17.80;54.00;;;;;;5088391;28;45262;-70
2022/11/29 03:32:16;;;;;;;2.58;1.63;;;17.80;54.00;;;;;;5088859;28;45290;-69
2022/11/29 03:34:50;;;;;;;1.60;1.50;;;17.80;54.10;;;;;;5088737;28;45400;-69
2022/11/29 03:37:18;;;;;;;2.17;1.40;;;17.70;54.00;;;;;;5088235;28;45354;-69
2022/11/29 03:39:49;;;;;;;3.40;1.80;;;17.70;54.10;;;;;;5088499;28;45434;-69
2022/11/29 03:42:18;;;;;;;2.05;1.70;;;17.70;54.10;;;;;;5088330;28;45191;-69
2022/11/29 03:44:49;;;;;;;3.53;2.22;;;17.70;54.20;;;;;;5088392;28;45324;-69
2022/11/29 03:47:17;;;;;;;3.38;1.65;;;17.70;54.20;;;;;;5101562;27;46888;-69
2022/11/29 03:49:47;;;;;;;3.15;1.77;;;17.60;54.20;;;;;;5108676;27;45233;-69
2022/11/29 03:52:16;;;;;;;1.88;1.55;;;17.60;54.30;;;;;;5108561;27;45404;-69
2022/11/29 03:54:47;;;;;;;1.60;1.35;;;17.60;54.30;;;;;;5108732;27;45403;-69
2022/11/29 03:57:15;;;;;;;5.53;1.67;;;17.60;54.30;;;;;;5108461;27;45530;-70
2022/11/29 03:59:50;;;;;;;1.95;1.80;;;17.60;54.80;;;;;;5108698;27;45169;-69
2022/11/29 04:02:42;;;;;;;2.20;1.73;;;17.60;54.20;;;;;;5108754;27;45217;-69
2022/11/29 04:05:25;;;;;;;1.50;1.35;;;17.70;54.20;;;;;;5108427;27;45459;-70
2022/11/29 04:08:17;;;;;;;2.67;1.55;;;17.70;54.10;;;;;;5095865;27;46182;-69
2022/11/29 04:10:55;;;;;;;1.40;1.30;;;17.70;54.10;;;;;;5088182;28;45301;-69
2022/11/29 04:13:42;;;;;;;1.85;1.48;;;17.70;54.00;;;;;;5088010;28;45325;-69
2022/11/29 04:16:21;;;;;;;1.38;1.20;;;17.80;54.00;;;;;;5087924;28;45295;-69
2022/11/29 04:19:09;;;;;;;2.03;1.70;;;17.80;53.90;;;;;;5087516;28;46562;-69
2022/11/29 04:22:01;;;;;;;2.05;1.33;;;17.80;53.80;;;;;;5087594;28;45328;-70
2022/11/29 04:24:54;;;;;;;1.40;1.30;;;17.80;53.80;;;;;;5087696;28;45233;-69
2022/11/29 04:27:48;;;;;;;2.42;1.30;;;17.80;53.70;;;;;;5087706;28;45473;-69
2022/11/29 04:30:18;;;;;;;1.52;1.38;;;17.80;53.70;;;;;;5087369;28;46369;-69
2022/11/29 04:33:21;;;;;;;2.70;1.50;;;17.80;53.70;;;;;;5087626;28;45241;-69
2022/11/29 04:36:17;;;;;;;1.50;1.40;;;17.80;53.70;;;;;;5087419;28;45335;-69
2022/11/29 04:39:01;;;;;;;3.08;1.20;;;17.80;54.30;;;;;;5087785;28;45438;-69
2022/11/29 04:41:46;;;;;;;1.52;1.20;;;17.80;53.70;;;;;;5087226;28;45561;-69
2022/11/29 04:44:47;;;;;;;1.40;1.30;;;17.80;53.80;;;;;;5087481;28;45190;-69
2022/11/29 04:47:27;;;;;;;2.35;1.30;;;17.80;53.80;;;;;;5024428;28;45417;-69
2022/11/29 04:50:01;;;;;;;2.05;1.33;;;17.70;53.80;;;;;;5078322;28;45475;-69
2022/11/29 04:52:36;;;;;;;1.27;1.15;;;17.70;53.90;;;;;;5087034;28;46461;-69
2022/11/29 04:55:14;;;;;;;1.98;1.40;;;17.70;53.90;;;;;;5087093;28;45249;-70
2022/11/29 04:57:44;;;;;;;1.83;1.27;;;17.70;53.90;;;;;;5087299;28;45505;-69
2022/11/29 05:00:12;;;;;;;1.85;1.35;;;17.70;54.00;;;;;;5087463;28;45436;-69
2022/11/29 05:02:43;;;;;;;1.45;1.27;;;17.60;54.00;;;;;;5086866;28;46367;-69
2022/11/29 05:05:18;;;;;;;2.65;1.23;;;17.60;54.00;;;;;;5086861;28;45315;-69
2022/11/29 05:07:48;;;;;;;2.58;1.30;;;17.60;54.10;;;;;;5098038;27;45374;-69
2022/11/29 05:10:22;;;;;;;2.20;1.38;;;17.60;54.10;;;;;;5107834;27;45210;-69
2022/11/29 05:12:53;;;;;;;0.98;0.98;;;17.50;54.10;;;;;;5107147;27;46402;-69
2022/11/29 05:15:42;;;;;;;3.35;1.70;;;17.60;54.20;;;;;;5106668;27;45446;-69
2022/11/29 05:18:14;;;;;;;2.40;1.30;;;17.60;54.20;;;;;;5107271;27;45275;-70
2022/11/29 05:20:45;;;;;;;2.35;1.38;;;17.50;54.10;;;;;;5107538;27;45251;-69
2022/11/29 05:23:25;;;;;;;2.63;1.92;;;17.50;54.10;;;;;;5106920;27;45240;-69
2022/11/29 05:25:55;;;;;;;1.67;1.25;;;17.60;54.10;;;;;;5107047;27;45307;-69
2022/11/29 05:28:25;;;;;;;1.60;1.30;;;17.60;54.00;;;;;;5107240;27;45342;-69
2022/11/29 05:31:20;;;;;;;1.85;1.08;;;17.60;54.00;;;;;;5107367;27;45332;-69
2022/11/29 05:33:55;;;;;;;1.17;1.00;;;17.60;53.90;;;;;;5107000;27;46835;-69
2022/11/29 05:36:24;;;;;;;1.50;1.40;;;17.70;53.80;;;;;;5106723;27;45211;-69
2022/11/29 05:39:00;;;;;;;2.95;1.30;;;17.70;53.70;;;;;;5106994;27;45243;-69
2022/11/29 05:41:46;;;;;;;1.27;1.17;;;17.70;53.60;;;;;;5107385;27;45474;-69
2022/11/29 05:44:15;;;;;;;1.40;1.20;;;17.70;53.50;;;;;;5106647;27;46658;-69
2022/11/29 05:46:46;;;;;;;2.33;1.40;;;17.70;53.50;;;;;;5097801;27;45291;-69
2022/11/29 05:49:18;;;;;;;2.05;1.30;;;17.80;53.40;;;;;;5086349;28;45445;-69
2022/11/29 05:51:50;;;;;;;1.63;1.15;;;17.70;53.40;;;;;;5086253;28;45507;-69
2022/11/29 05:54:24;;;;;;;1.65;1.15;;;17.70;53.40;;;;;;5085996;28;45475;-69
2022/11/29 05:56:57;;;;;;;1.35;1.20;;;17.70;53.40;;;;;;5086132;28;45357;-69
2022/11/29 05:59:26;;;;;;;1.45;1.27;;;17.70;53.40;;;;;;5086205;28;45308;-69
2022/11/29 06:01:57;;;;;;;1.45;1.20;;;17.70;53.40;;;;;;5086390;28;45466;-69
2022/11/29 06:04:28;;;;;;;1.90;1.63;;;17.70;53.40;;;;;;5085742;28;47488;-69
2022/11/29 06:06:58;;;;;;;1.15;1.05;;;17.70;53.40;;;;;;5089786;27;45199;-69
2022/11/29 06:09:27;;;;;;;1.60;1.50;;;17.70;53.50;;;;;;5106612;27;45326;-69
2022/11/29 06:12:01;;;;;;;2.92;1.30;;;17.70;53.50;;;;;;5106690;27;45131;-69
2022/11/29 06:14:38;;;;;;;1.75;1.08;;;17.60;53.50;;;;;;5106194;27;45288;-69
2022/11/29 06:17:39;;;;;;;1.60;1.25;;;17.60;54.10;;;;;;5106575;27;45236;-69
2022/11/29 06:20:32;;;;;;;1.42;1.10;;;17.60;53.60;;;;;;5023065;28;45410;-69
2022/11/29 06:23:17;;;;;;;2.92;1.15;;;17.50;53.60;;;;;;5097974;27;45498;-69
2022/11/29 06:25:50;;;;;;;1.35;1.08;;;17.50;53.60;;;;;;5105959;27;46820;-69
2022/11/29 06:28:33;;;;;;;2.10;1.15;;;17.50;53.60;;;;;;5106420;27;45177;-69
2022/11/29 06:31:02;;;;;;;1.08;0.90;;;17.50;53.70;;;;;;5106242;27;45274;-69
2022/11/29 06:33:34;;;;;;;1.52;1.00;;;17.50;53.70;;;;;;5106391;27;45353;-69
2022/11/29 06:36:10;;;;;;;1.17;1.00;;;17.50;53.70;;;;;;5105833;27;45527;-69
2022/11/29 06:38:37;;;;;;;2.22;1.13;;;17.50;53.70;;;;;;5106089;27;45279;-69
2022/11/29 06:41:05;;;;;;;1.40;1.30;;;17.50;53.70;;;;;;5106204;27;45295;-69
2022/11/29 06:43:33;;;;;;;2.63;1.30;;;17.50;53.60;;;;;;5106184;27;45410;-69
2022/11/29 06:46:03;;;;;;;1.83;1.08;;;17.50;53.60;;;;;;5102678;27;45227;-69
2022/11/29 06:48:33;;;;;;;1.27;1.17;;;17.50;53.50;;;;;;5085279;28;45326;-69
2022/11/29 06:51:03;;;;;;;1.52;1.10;;;17.50;53.50;;;;;;5085425;28;45221;-69
2022/11/29 06:53:36;;;;;;;2.65;1.23;;;17.50;53.40;;;;;;5085631;28;45358;-69
2022/11/29 06:56:08;;;;;;;1.20;1.10;;;17.50;53.40;;;;;;5085059;28;45352;-69
2022/11/29 06:58:42;;;;;;;1.27;1.15;;;17.60;53.40;;;;;;5085255;28;45196;-69
2022/11/29 07:01:15;;;;;;;2.90;1.13;;;17.60;53.40;;;;;;5085507;28;45233;-69
2022/11/29 07:03:59;;;;;;;1.17;1.08;;;17.60;53.20;;;;;;5085656;28;44883;-69
2022/11/29 07:06:27;;;;;;;2.67;1.20;;;17.60;53.20;;;;;;5084773;28;45832;-69
2022/11/29 07:08:56;;;;;;;1.27;1.15;;;17.60;53.10;;;;;;5065162;28;45322;-69
2022/11/29 07:11:23;;;;;;;1.20;1.10;;;17.60;53.10;;;;;;5064943;28;45381;-69
2022/11/29 07:13:52;;;;;;;1.15;1.10;;;17.60;53.10;;;;;;5065020;28;45493;-69
2022/11/29 07:16:24;;;;;;;1.58;1.20;;;17.60;53.10;;;;;;5064606;28;48816;-69
2022/11/29 07:18:55;;;;;;;2.05;1.30;;;17.60;53.10;;;;;;5064612;28;45389;-69
2022/11/29 07:21:25;;;;;;;1.38;1.27;;;17.60;53.10;;;;;;5064924;28;45269;-69
2022/11/29 07:23:56;;;;;;;2.33;1.25;;;17.60;53.10;;;;;;5065084;28;45317;-69
2022/11/29 07:26:25;;;;;;;1.92;1.30;;;17.60;53.10;;;;;;5064466;28;45518;-69
2022/11/29 07:29:02;;;;;;;1.38;1.05;;;17.50;53.10;;;;;;5064596;28;45324;-69
2022/11/29 07:31:34;;;;;;;1.27;1.17;;;17.50;53.20;;;;;;5064775;28;45205;-70
2022/11/29 07:34:05;;;;;;;4.40;1.50;;;17.50;53.20;;;;;;5064837;28;45257;-69
2022/11/29 07:36:38;;;;;;;2.33;1.20;;;17.50;53.20;;;;;;5064378;28;45453;-69
2022/11/29 07:39:16;;;;;;;1.30;1.20;;;17.50;53.30;;;;;;5065552;28;45328;-69
2022/11/29 07:41:45;;;;;;;1.27;1.20;;;17.50;53.30;;;;;;5068003;28;45315;-70
2022/11/29 07:44:18;;;;;;;1.50;1.27;;;17.40;53.40;;;;;;5068161;28;45293;-69
2022/11/29 07:46:45;;;;;;;3.33;1.63;;;17.40;53.40;;;;;;5085603;27;45511;-69
2022/11/29 07:49:12;;;;;;;1.73;1.40;;;17.40;53.30;;;;;;5108600;27;45319;-70
2022/11/29 07:51:39;;;;;;;1.45;1.25;;;17.40;53.30;;;;;;5108434;27;45238;-70
2022/11/29 07:54:06;;;;;;;4.10;1.55;;;17.50;54.00;;;;;;5108921;27;45454;-69
2022/11/29 07:56:32;;;;;;;1.42;1.33;;;17.50;53.30;;;;;;5087382;27;45543;-69
2022/11/29 07:59:00;;;;;;;2.17;1.48;;;17.50;53.30;;;;;;5067597;28;45357;-69
2022/11/29 08:01:28;;;;;;;2.30;1.45;;;17.50;53.20;;;;;;5070884;28;45412;-69
2022/11/29 08:03:55;;;;;;;2.40;1.58;;;17.50;53.20;;;;;;5087951;28;45453;-69
2022/11/29 08:06:24;;;;;;;1.77;1.30;;;17.50;53.20;;;;;;5087679;28;47501;-69
2022/11/29 08:08:51;;;;;;;2.83;1.60;;;17.50;53.10;;;;;;5108317;27;45341;-69
2022/11/29 08:11:18;;;;;;;2.15;1.80;;;17.60;53.10;;;;;;5108438;27;45312;-69
2022/11/29 08:13:45;;;;;;;3.17;1.52;;;17.60;53.00;;;;;;5108472;27;45147;-69
2022/11/29 08:16:16;;;;;;;2.35;1.60;;;17.60;53.00;;;;;;5108184;27;46766;-69
2022/11/29 08:18:44;;;;;;;2.17;1.50;;;17.60;53.00;;;;;;5108152;27;45277;-69
2022/11/29 08:21:11;;;;;;;2.17;1.60;;;17.60;52.90;;;;;;5108265;27;45176;-69
2022/11/29 08:23:38;;;;;;;2.17;1.90;;;17.60;52.90;;;;;;5108398;27;45469;-70
2022/11/29 08:26:05;;;;;;;1.92;1.50;;;17.60;52.90;;;;;;5107765;27;46567;-69
2022/11/29 08:28:31;;;;;;;3.10;2.08;;;17.60;52.90;;;;;;5108024;27;45320;-69
2022/11/29 08:31:02;;;;;;;2.28;1.70;;;17.60;52.90;;;;;;5108069;27;45200;-69
2022/11/29 08:33:28;;;;;;;4.00;1.77;;;17.60;52.90;;;;;;5108375;27;45294;-69
2022/11/29 08:35:57;;;;;;;2.20;2.00;;;17.60;53.50;;;;;;5107672;27;46341;-69
2022/11/29 08:38:23;;;;;;;2.20;1.95;;;17.60;52.90;;;;;;5107843;27;45261;-69
2022/11/29 08:40:51;;;;;;;5.00;2.17;;;17.60;53.00;;;;;;5107819;27;45209;-69
2022/11/29 08:43:17;;;;;;;3.60;2.10;;;17.60;53.00;;;;;;5107969;27;45372;-69
2022/11/29 08:45:44;;;;;;;2.97;1.75;;;17.50;53.00;;;;;;5106888;27;45475;-69
2022/11/29 08:48:13;;;;;;;4.18;1.90;;;17.50;53.10;;;;;;5087334;28;45346;-69
2022/11/29 08:50:40;;;;;;;3.83;2.38;;;17.50;53.10;;;;;;5085939;27;45195;-70
2022/11/29 08:56:08;;;;;;;3.35;2.10;;;17.50;53.20;;;;;;5021528;28;46148;-69
2022/11/29 08:58:35;;;;;;;2.55;2.10;;;17.50;53.20;;;;;;5024262;28;45266;-69
2022/11/29 09:01:02;;;;;;;3.00;1.83;;;17.50;53.20;;;;;;5051284;28;45391;-69
2022/11/29 09:06:14;;;;;;;2.33;1.95;;;17.50;53.30;;;;;;5084095;28;45127;-69
2022/11/29 09:08:42;;;;;;;2.33;1.90;;;17.50;53.20;;;;;;5105747;27;45319;-70
2022/11/29 09:11:12;;;;;;;5.70;2.20;;;17.50;53.20;;;;;;5107452;27;45230;-69
2022/11/29 09:13:39;;;;;;;4.45;2.40;;;17.50;53.10;;;;;;5107506;27;45343;-69
2022/11/29 09:16:07;;;;;;;2.92;2.17;;;17.60;53.10;;;;;;5107158;27;45559;-69
2022/11/29 09:18:34;;;;;;;2.30;2.10;;;17.60;53.00;;;;;;5107011;27;45140;-70
2022/11/29 09:21:01;;;;;;;2.65;2.03;;;17.60;53.00;;;;;;5107338;27;45144;-69
2022/11/29 09:23:28;;;;;;;3.10;2.15;;;17.70;53.00;;;;;;5107390;27;45169;-69
2022/11/29 09:25:56;;;;;;;2.97;2.22;;;17.70;52.90;;;;;;5107115;27;45451;-70
2022/11/29 09:28:23;;;;;;;4.68;2.13;;;17.70;52.90;;;;;;5107015;27;45340;-69
2022/11/29 09:30:50;;;;;;;2.63;2.38;;;17.70;52.90;;;;;;5107060;27;45196;-69
2022/11/29 09:33:17;;;;;;;3.13;2.05;;;17.70;52.90;;;;;;5107287;27;45184;-70
2022/11/29 09:35:44;;;;;;;3.95;2.28;;;17.70;52.90;;;;;;5106940;27;45696;-69
2022/11/29 09:38:11;;;;;;;2.80;2.50;;;17.70;52.90;;;;;;5106839;27;45351;-70
2022/11/29 09:40:40;;;;;;;5.28;2.65;;;17.70;52.90;;;;;;5106910;27;45336;-70
2022/11/29 09:43:14;;;;;;;4.35;2.30;;;17.70;52.90;;;;;;5107111;27;45381;-69
2022/11/29 09:45:42;;;;;;;3.00;2.58;;;17.70;52.90;;;;;;5106288;27;45244;-70
2022/11/29 09:48:26;;;;;;;3.08;2.28;;;17.70;52.90;;;;;;5086293;28;45250;-69
2022/11/29 09:50:57;;;;;;;5.47;2.17;;;17.70;52.90;;;;;;5085903;28;45213;-69
2022/11/29 09:53:33;;;;;;;4.97;2.65;;;17.70;53.00;;;;;;5086313;28;45440;-69
2022/11/29 09:56:10;;;;;;;3.03;2.35;;;17.70;53.10;;;;;;5085862;28;46371;-70
2022/11/29 09:58:42;;;;;;;4.65;2.70;;;17.70;53.10;;;;;;5086159;28;45200;-69
2022/11/29 10:01:11;;;;;;;3.72;2.40;;;17.70;53.10;;;;;;5086169;28;45259;-69
2022/11/29 10:03:39;;;;;;;5.72;2.42;;;17.70;53.20;;;;;;5085997;28;45202;-69
2022/11/29 10:06:08;;;;;;;4.28;2.17;;;17.60;53.20;;;;;;5085644;28;45323;-69
2022/11/29 10:08:36;;;;;;;4.05;2.45;;;17.60;53.30;;;;;;5104052;27;45186;-69
2022/11/29 10:11:12;;;;;;;3.33;2.58;;;17.60;53.30;;;;;;5106593;27;45180;-70
2022/11/29 10:13:43;;;;;;;2.70;2.33;;;17.60;53.40;;;;;;5106870;27;45199;-69
2022/11/29 10:16:12;;;;;;;3.67;2.47;;;17.60;53.50;;;;;;5106193;27;45650;-70
2022/11/29 10:18:42;;;;;;;3.42;2.30;;;17.60;53.50;;;;;;5106285;27;45140;-69
2022/11/29 10:21:11;;;;;;;3.78;2.47;;;17.60;54.10;;;;;;5106359;27;45232;-69
2022/11/29 10:23:41;;;;;;;2.70;2.15;;;17.60;53.50;;;;;;5106510;27;45521;-69
2022/11/29 10:26:08;;;;;;;5.57;2.40;;;17.60;53.50;;;;;;5105987;27;46666;-69
2022/11/29 10:28:35;;;;;;;2.88;2.33;;;17.60;53.40;;;;;;5106160;27;45211;-69
2022/11/29 10:31:12;;;;;;;4.10;2.80;;;17.70;53.50;;;;;;5106275;27;45260;-69
2022/11/29 10:33:39;;;;;;;4.15;2.30;;;17.70;53.50;;;;;;5106558;27;45527;-69
2022/11/29 10:36:22;;;;;;;5.22;2.30;;;17.70;53.40;;;;;;5105883;27;45842;-69
2022/11/29 10:38:49;;;;;;;6.18;2.42;;;17.70;53.30;;;;;;5106088;27;45274;-69
2022/11/29 10:41:18;;;;;;;4.05;2.78;;;17.70;53.20;;;;;;5106201;27;45408;-69
2022/11/29 10:43:45;;;;;;;3.60;2.50;;;17.80;53.30;;;;;;5106288;27;45289;-70
2022/11/29 10:46:14;;;;;;;3.08;2.30;;;17.80;53.20;;;;;;5101311;27;46414;-70
2022/11/29 10:48:41;;;;;;;5.95;2.72;;;17.80;53.20;;;;;;5085430;28;45316;-69
2022/11/29 10:51:12;;;;;;;3.78;2.53;;;17.80;53.20;;;;;;5085350;28;45303;-69
2022/11/29 10:53:38;;;;;;;3.35;2.50;;;17.80;53.20;;;;;;5085643;28;45198;-69
2022/11/29 10:56:07;;;;;;;3.20;2.30;;;17.80;53.20;;;;;;5085227;28;47318;-69
2022/11/29 10:58:34;;;;;;;3.38;2.22;;;17.80;53.20;;;;;;5085327;28;45316;-69
2022/11/29 11:01:01;;;;;;;4.80;2.67;;;17.80;53.20;;;;;;5085266;28;45186;-69
2022/11/29 11:03:32;;;;;;;3.38;2.42;;;17.80;53.20;;;;;;5085556;28;45195;-69
2022/11/29 11:06:02;;;;;;;2.80;2.50;;;17.80;53.30;;;;;;5084946;28;45915;-69
2022/11/29 11:08:29;;;;;;;3.17;2.50;;;17.80;53.30;;;;;;5102380;27;45220;-70
2022/11/29 11:10:56;;;;;;;3.42;2.42;;;17.80;53.40;;;;;;5105670;27;45412;-69
2022/11/29 11:13:24;;;;;;;3.85;2.40;;;17.70;53.40;;;;;;5105965;27;45311;-69
2022/11/29 11:15:56;;;;;;;3.53;2.50;;;17.70;53.40;;;;;;5108739;27;46448;-70
2022/11/29 11:18:24;;;;;;;3.92;2.67;;;17.70;53.50;;;;;;5109110;27;45313;-69
2022/11/29 11:20:54;;;;;;;4.35;2.53;;;17.70;53.50;;;;;;5109199;27;45144;-69
2022/11/29 11:23:24;;;;;;;3.80;2.47;;;17.70;53.60;;;;;;5109364;27;45347;-69
2022/11/29 11:25:56;;;;;;;3.95;2.60;;;17.70;53.60;;;;;;5108702;27;45272;-69
2022/11/29 11:28:24;;;;;;;2.42;2.17;;;17.70;53.70;;;;;;5108701;27;45353;-70
2022/11/29 11:30:51;;;;;;;4.85;2.78;;;17.70;53.70;;;;;;5109055;27;45208;-69
2022/11/29 11:33:19;;;;;;;2.78;2.47;;;17.70;53.70;;;;;;5109202;27;45446;-69
2022/11/29 11:36:01;;;;;;;3.53;2.42;;;17.60;53.70;;;;;;5108740;27;46736;-69
2022/11/29 11:38:28;;;;;;;3.63;2.13;;;17.60;53.80;;;;;;5108789;27;45281;-69
2022/11/29 11:41:03;;;;;;;4.78;2.53;;;17.60;53.90;;;;;;5109182;27;45449;-70
2022/11/29 11:43:29;;;;;;;4.40;2.10;;;17.60;53.90;;;;;;5108995;27;45146;-69
2022/11/29 11:45:56;;;;;;;2.53;2.30;;;17.60;53.90;;;;;;5106209;27;45319;-70
2022/11/29 11:48:23;;;;;;;4.47;2.17;;;17.60;53.90;;;;;;5087883;28;45307;-69
2022/11/29 11:50:51;;;;;;;4.32;1.95;;;17.60;53.90;;;;;;5087895;28;45303;-69
2022/11/29 11:53:21;;;;;;;3.75;2.70;;;17.60;53.90;;;;;;5088313;28;45179;-70
2022/11/29 11:55:55;;;;;;;3.63;2.30;;;17.70;53.80;;;;;;5087732;28;46717;-70
2022/11/29 11:58:22;;;;;;;5.63;2.35;;;17.70;53.80;;;;;;5087853;28;45340;-70
2022/11/29 12:00:50;;;;;;;3.90;1.95;;;17.70;53.80;;;;;;5088223;28;45328;-69
2022/11/29 12:03:34;;;;;;;2.95;2.30;;;17.70;53.70;;;;;;5088292;28;45416;-69
2022/11/29 12:06:10;;;;;;;3.38;2.55;;;17.70;53.70;;;;;;5087556;28;47610;-69
2022/11/29 12:08:38;;;;;;;3.92;2.10;;;17.80;53.70;;;;;;5106016;27;46387;-69
2022/11/29 12:11:06;;;;;;;3.75;2.30;;;17.80;53.60;;;;;;5108559;27;45172;-69
2022/11/29 12:13:35;;;;;;;3.42;2.40;;;17.80;53.60;;;;;;5108436;27;45363;-69
2022/11/29 12:16:05;;;;;;;4.43;2.22;;;17.80;53.50;;;;;;5107816;27;46531;-69
2022/11/29 12:18:36;;;;;;;2.75;2.20;;;17.80;53.50;;;;;;5108110;27;45313;-69
2022/11/29 12:21:05;;;;;;;2.45;2.10;;;17.80;53.50;;;;;;5108109;27;45249;-69
2022/11/29 12:23:35;;;;;;;2.28;1.98;;;17.80;53.50;;;;;;5108411;27;45373;-69
2022/11/29 12:26:06;;;;;;;3.53;2.33;;;17.80;53.50;;;;;;5107686;27;45192;-69
2022/11/29 12:28:33;;;;;;;3.80;2.60;;;17.80;53.50;;;;;;5107842;27;45305;-69
2022/11/29 12:31:05;;;;;;;2.50;2.15;;;17.80;53.50;;;;;;5108050;27;45314;-70
2022/11/29 12:33:36;;;;;;;2.78;2.03;;;17.80;53.60;;;;;;5108251;27;45510;-69
2022/11/29 12:36:10;;;;;;;5.35;2.20;;;17.80;53.40;;;;;;5107642;27;46416;-69
2022/11/29 12:38:48;;;;;;;4.30;2.05;;;17.70;52.90;;;;;;5107760;27;45368;-70
2022/11/29 12:41:24;;;;;;;2.38;1.85;;;17.70;53.20;;;;;;5107951;27;45181;-70
2022/11/29 12:43:57;;;;;;;3.95;2.03;;;17.70;53.40;;;;;;5108345;27;45529;-70
2022/11/29 12:46:24;;;;;;;5.80;2.10;;;17.70;53.60;;;;;;5101552;27;47337;-69
2022/11/29 12:48:55;;;;;;;4.15;2.05;;;17.70;53.70;;;;;;5087194;28;45199;-68
2022/11/29 12:51:25;;;;;;;3.25;1.90;;;17.70;53.80;;;;;;5087000;28;45228;-69
2022/11/29 12:54:02;;;;;;;4.38;1.90;;;17.70;53.90;;;;;;5087245;28;45621;-70
2022/11/29 12:56:33;;;;;;;4.43;1.98;;;17.70;54.00;;;;;;5086773;28;46653;-69
2022/11/29 12:59:11;;;;;;;4.38;2.10;;;17.70;54.10;;;;;;5087012;28;45154;-69
2022/11/29 13:01:54;;;;;;;4.57;2.30;;;17.70;54.10;;;;;;5087125;28;45303;-69
2022/11/29 13:04:22;;;;;;;4.50;2.30;;;17.70;54.20;;;;;;5087125;28;45209;-69
2022/11/29 13:06:53;;;;;;;7.93;2.30;;;17.60;54.20;;;;;;5089796;27;45915;-69
2022/11/29 13:09:46;;;;;;;3.55;2.05;;;17.60;53.80;;;;;;5107199;27;45201;-69
2022/11/29 13:12:16;;;;;;;6.05;2.30;;;17.50;53.70;;;;;;5107078;27;45280;-69
2022/11/29 13:14:47;;;;;;;5.03;1.95;;;17.50;53.70;;;;;;5107335;27;45480;-69
2022/11/29 13:17:19;;;;;;;6.20;1.75;;;17.50;53.70;;;;;;5107165;27;47555;-69